createdAt,value
2022-08-05T00:00:46.462Z,21.10
2022-08-05T00:03:18.117Z,21.09
2022-08-05T00:06:06.403Z,21.11
2022-08-05T00:08:36.191Z,21.11
2022-08-05T00:11:07.531Z,21.12
2022-08-05T00:13:53.176Z,21.12
2022-08-05T00:16:35.437Z,21.12
2022-08-05T00:19:05.537Z,21.13
2022-08-05T00:21:35.623Z,21.14
2022-08-05T00:24:10.436Z,21.14
2022-08-05T00:26:39.528Z,21.10
2022-08-05T00:29:18.659Z,21.06
2022-08-05T00:32:10.603Z,21.08
2022-08-05T00:34:55.705Z,21.07
2022-08-05T00:37:35.583Z,21.02
2022-08-05T00:40:17.930Z,20.98
2022-08-05T00:42:55.468Z,20.93
2022-08-05T00:45:28.407Z,20.94
2022-08-05T00:48:10.144Z,20.90
2022-08-05T00:50:39.138Z,20.86
2022-08-05T00:53:59.895Z,20.82
2022-08-05T00:55:58.557Z,20.75
2022-08-05T00:58:27.321Z,20.64
2022-08-05T01:00:56.229Z,20.61
2022-08-05T01:03:30.758Z,20.60
2022-08-05T01:06:02.601Z,20.61
2022-08-05T01:08:43.958Z,20.61
2022-08-05T01:11:22.535Z,20.62
2022-08-05T01:14:08.783Z,20.67
2022-08-05T01:16:50.367Z,20.73
2022-08-05T01:20:01.764Z,20.77
2022-08-05T01:22:48.586Z,20.79
2022-08-05T01:25:42.516Z,20.79
2022-08-05T01:28:37.315Z,20.78
2022-08-05T01:31:12.251Z,20.76
2022-08-05T01:33:49.339Z,20.74
2022-08-05T01:36:28.406Z,20.78
2022-08-05T01:39:01.221Z,20.84
2022-08-05T01:41:33.937Z,20.91
2022-08-05T01:44:09.988Z,20.93
2022-08-05T01:46:46.840Z,20.90
2022-08-05T01:49:22.940Z,20.91
2022-08-05T01:51:53.303Z,21.03
2022-08-05T01:54:25.589Z,21.11
2022-08-05T01:58:29.495Z,21.20
2022-08-05T01:59:47.939Z,21.22
2022-08-05T02:02:17.435Z,21.20
2022-08-05T02:04:49.495Z,21.16
2022-08-05T02:07:22.200Z,21.12
2022-08-05T02:09:51.262Z,21.05
2022-08-05T02:12:27.141Z,20.94
2022-08-05T02:15:04.655Z,20.87
2022-08-05T02:18:31.909Z,20.81
2022-08-05T02:20:48.761Z,20.73
2022-08-05T02:23:22.531Z,20.71
2022-08-05T02:25:53.485Z,20.71
2022-08-05T02:28:29.378Z,20.74
2022-08-05T02:31:04.115Z,20.73
2022-08-05T02:33:38.934Z,20.71
2022-08-05T02:36:13.727Z,20.64
2022-08-05T02:38:53.545Z,20.54
2022-08-05T02:41:28.821Z,20.47
2022-08-05T02:44:11.911Z,20.41
2022-08-05T02:46:59.720Z,20.34
2022-08-05T02:49:36.529Z,20.22
2022-08-05T02:52:09.506Z,20.16
2022-08-05T02:54:42.699Z,20.09
2022-08-05T02:58:20.519Z,20.05
2022-08-05T03:00:10.629Z,20.03
2022-08-05T03:02:42.946Z,19.99
2022-08-05T03:05:13.543Z,19.98
2022-08-05T03:08:00.457Z,19.96
2022-08-05T03:10:30.937Z,19.92
2022-08-05T03:15:26.174Z,19.84
2022-08-05T03:18:08.326Z,19.80
2022-08-05T03:20:37.721Z,19.74
2022-08-05T03:23:13.419Z,19.68
2022-08-05T03:26:04.779Z,19.64
2022-08-05T03:28:30.947Z,19.63
2022-08-05T03:31:00.750Z,19.60
2022-08-05T03:33:51.156Z,19.54
2022-08-05T03:36:28.006Z,19.49
2022-08-05T03:38:59.131Z,19.49
2022-08-05T03:41:33.236Z,19.48
2022-08-05T03:44:11.336Z,19.46
2022-08-05T03:46:40.228Z,19.42
2022-08-05T03:49:10.795Z,19.43
2022-08-05T03:52:39.167Z,19.42
2022-08-05T03:55:51.989Z,19.45
2022-08-05T03:57:42.425Z,19.57
2022-08-05T04:00:15.972Z,19.67
2022-08-05T04:02:58.753Z,19.75
2022-08-05T04:05:33.566Z,19.90
2022-08-05T04:08:05.488Z,20.01
2022-08-05T04:10:38.131Z,20.22
2022-08-05T04:13:08.616Z,20.35
2022-08-05T04:15:37.301Z,20.53
2022-08-05T04:18:09.461Z,20.61
2022-08-05T04:20:41.346Z,20.59
2022-08-05T04:23:12.247Z,20.56
2022-08-05T04:26:00.180Z,20.59
2022-08-05T04:28:31.649Z,20.62
2022-08-05T04:31:01.475Z,20.66
2022-08-05T04:33:54.829Z,20.69
2022-08-05T04:36:50.254Z,20.77
2022-08-05T04:39:08.058Z,20.75
2022-08-05T04:41:37.789Z,20.77
2022-08-05T04:44:09.385Z,20.91
2022-08-05T04:46:38.804Z,21.15
2022-08-05T04:49:12.168Z,21.45
2022-08-05T04:51:44.611Z,21.72
2022-08-05T04:54:14.865Z,21.94
2022-08-05T04:56:44.592Z,22.15
2022-08-05T04:59:21.770Z,22.31
2022-08-05T05:02:07.155Z,22.34
2022-08-05T05:04:43.888Z,22.19
2022-08-05T05:07:17.460Z,22.04
2022-08-05T05:09:45.799Z,22.09
2022-08-05T05:12:15.901Z,22.02
2022-08-05T05:14:50.912Z,22.00
2022-08-05T05:17:56.729Z,21.96
2022-08-05T05:20:33.840Z,21.94
2022-08-05T05:23:08.227Z,21.94
2022-08-05T05:25:47.857Z,21.94
2022-08-05T05:28:15.997Z,21.91
2022-08-05T05:30:44.146Z,21.95
2022-08-05T05:33:23.487Z,22.05
2022-08-05T05:35:51.807Z,22.14
2022-08-05T05:38:26.809Z,22.30
2022-08-05T05:40:56.266Z,22.50
2022-08-05T05:43:58.200Z,22.64
2022-08-05T05:46:19.257Z,22.80
2022-08-05T05:48:49.890Z,22.87
2022-08-05T05:51:50.544Z,23.02
2022-08-05T05:54:22.152Z,23.19
2022-08-05T05:57:13.704Z,23.48
2022-08-05T05:59:47.336Z,23.48
2022-08-05T06:02:17.187Z,23.62
2022-08-05T06:05:01.410Z,23.65
2022-08-05T06:07:41.774Z,23.68
2022-08-05T06:10:12.606Z,23.79
2022-08-05T06:12:42.353Z,23.86
2022-08-05T06:15:23.742Z,23.86
2022-08-05T06:17:54.721Z,23.77
2022-08-05T06:20:23.587Z,23.60
2022-08-05T06:22:51.605Z,23.52
2022-08-05T06:25:59.804Z,23.57
2022-08-05T06:28:21.239Z,23.68
2022-08-05T06:30:50.131Z,23.69
2022-08-05T06:33:19.061Z,23.74
2022-08-05T06:36:03.963Z,23.88
2022-08-05T06:38:36.805Z,23.86
2022-08-05T06:41:08.133Z,23.79
2022-08-05T06:43:58.072Z,23.63
2022-08-05T06:46:30.009Z,23.56
2022-08-05T06:49:00.822Z,23.56
2022-08-05T06:51:30.993Z,23.50
2022-08-05T06:54:00.119Z,23.40
2022-08-05T06:56:34.354Z,23.36
2022-08-05T06:59:03.183Z,23.26
2022-08-05T07:01:32.320Z,23.17
2022-08-05T07:04:02.371Z,23.27
2022-08-05T07:06:31.751Z,23.46
2022-08-05T07:09:03.834Z,23.42
2022-08-05T07:11:37.155Z,23.42
2022-08-05T07:14:29.729Z,23.41
2022-08-05T07:18:08.485Z,23.35
2022-08-05T07:22:42.682Z,23.25
2022-08-05T07:25:54.489Z,23.33
2022-08-05T07:28:05.337Z,23.38
2022-08-05T07:30:39.865Z,23.47
2022-08-05T07:33:15.730Z,23.49
2022-08-05T07:36:02.606Z,23.55
2022-08-05T07:38:42.602Z,23.65
2022-08-05T07:42:06.798Z,23.78
2022-08-05T07:44:04.149Z,23.98
2022-08-05T07:46:33.792Z,24.07
2022-08-05T07:49:05.864Z,23.97
2022-08-05T07:51:48.663Z,24.04
2022-08-05T07:54:34.091Z,24.11
2022-08-05T07:57:17.644Z,24.32
2022-08-05T08:00:01.866Z,24.72
2022-08-05T08:03:14.084Z,24.84
2022-08-05T08:05:26.375Z,24.90
2022-08-05T08:08:00.256Z,24.86
2022-08-05T08:10:28.884Z,24.90
2022-08-05T08:13:01.504Z,24.97
2022-08-05T08:16:33.252Z,25.00
2022-08-05T08:18:20.993Z,24.88
2022-08-05T08:21:02.179Z,24.73
2022-08-05T08:24:01.970Z,24.63
2022-08-05T08:26:29.674Z,24.45
2022-08-05T08:28:59.813Z,24.26
2022-08-05T08:31:48.236Z,24.18
2022-08-05T08:34:16.616Z,24.06
2022-08-05T08:36:54.665Z,23.99
2022-08-05T08:39:24.945Z,23.91
2022-08-05T08:41:58.650Z,23.78
2022-08-05T08:45:22.542Z,23.73
2022-08-05T08:48:06.618Z,23.80
2022-08-05T08:50:32.966Z,23.98
2022-08-05T08:53:12.364Z,24.12
2022-08-05T08:56:03.766Z,24.21
2022-08-05T08:58:43.005Z,24.21
2022-08-05T09:01:16.618Z,24.10
2022-08-05T09:03:48.360Z,24.12
2022-08-05T09:06:40.276Z,24.10
2022-08-05T09:09:09.346Z,24.02
2022-08-05T09:11:51.005Z,23.91
2022-08-05T09:14:57.029Z,23.63
2022-08-05T09:17:40.828Z,23.42
2022-08-05T09:20:05.544Z,23.24
2022-08-05T09:23:09.529Z,23.19
2022-08-05T09:26:03.068Z,23.21
2022-08-05T09:28:39.506Z,23.24
2022-08-05T09:31:22.230Z,23.15
2022-08-05T09:33:59.714Z,22.97
2022-08-05T09:36:54.096Z,22.90
2022-08-05T09:39:27.552Z,22.79
2022-08-05T09:42:07.947Z,22.70
2022-08-05T09:44:38.597Z,22.62
2022-08-05T09:47:15.432Z,22.46
2022-08-05T09:50:00.649Z,22.38
2022-08-05T09:52:34.397Z,22.30
2022-08-05T09:55:55.476Z,22.17
2022-08-05T09:57:54.689Z,21.97
2022-08-05T10:00:27.639Z,21.84
2022-08-05T10:02:58.052Z,21.70
2022-08-05T10:05:28.977Z,21.59
2022-08-05T10:08:35.880Z,21.49
2022-08-05T10:11:04.691Z,21.39
2022-08-05T10:13:43.978Z,21.34
2022-08-05T10:16:41.903Z,21.31
2022-08-05T10:19:23.791Z,21.32
2022-08-05T10:22:00.131Z,21.29
2022-08-05T10:24:33.375Z,21.27
2022-08-05T10:27:07.880Z,21.25
2022-08-05T10:30:41.365Z,21.21
2022-08-05T10:32:52.054Z,21.09
2022-08-05T10:35:14.383Z,20.98
2022-08-05T10:37:44.941Z,20.95
2022-08-05T10:40:27.923Z,21.01
2022-08-05T10:43:02.566Z,20.94
2022-08-05T10:45:40.030Z,20.93
2022-08-05T10:48:52.343Z,20.91
2022-08-05T10:51:29.057Z,20.92
2022-08-05T10:54:01.668Z,20.94
2022-08-05T10:57:03.548Z,21.00
2022-08-05T11:00:03.062Z,21.01
2022-08-05T11:02:34.593Z,21.05
2022-08-05T11:05:07.358Z,21.04
2022-08-05T11:08:02.439Z,20.99
2022-08-05T11:10:37.131Z,21.01
2022-08-05T11:13:09.366Z,20.98
2022-08-05T11:16:47.395Z,20.95
2022-08-05T11:20:10.665Z,21.03
2022-08-05T11:22:42.130Z,21.25
2022-08-05T11:26:04.762Z,21.38
2022-08-05T11:28:58.731Z,21.20
2022-08-05T11:31:56.930Z,21.08
2022-08-05T11:34:59.933Z,20.97
2022-08-05T11:38:29.106Z,20.88
2022-08-05T11:41:35.040Z,20.88
2022-08-05T11:44:08.099Z,20.83
2022-08-05T11:47:09.829Z,20.75
2022-08-05T11:49:27.130Z,20.75
2022-08-05T11:51:57.594Z,20.75
2022-08-05T11:54:32.925Z,20.68
2022-08-05T11:57:08.288Z,20.66
2022-08-05T11:59:58.708Z,20.55
2022-08-05T12:02:32.928Z,20.47
2022-08-05T12:05:07.327Z,20.30
2022-08-05T12:08:08.073Z,20.15
2022-08-05T12:10:38.660Z,20.02
2022-08-05T12:13:27.661Z,19.96
2022-08-05T12:16:15.637Z,19.97
2022-08-05T12:18:49.367Z,19.89
2022-08-05T12:21:24.130Z,19.95
2022-08-05T12:24:04.271Z,19.92
2022-08-05T12:26:34.277Z,19.95
2022-08-05T12:29:03.255Z,19.86
2022-08-05T12:31:46.305Z,19.75
2022-08-05T12:34:21.466Z,19.63
2022-08-05T12:37:10.700Z,19.59
2022-08-05T12:39:40.350Z,19.51
2022-08-05T12:42:15.261Z,19.50
2022-08-05T12:44:44.683Z,19.44
2022-08-05T12:47:25.530Z,19.46
2022-08-05T12:50:03.449Z,19.43
2022-08-05T12:52:59.247Z,19.45
2022-08-05T12:55:32.893Z,19.47
2022-08-05T12:58:52.741Z,19.49
2022-08-05T13:02:03.285Z,19.50
2022-08-05T13:03:45.408Z,19.54
2022-08-05T13:06:16.786Z,19.74
2022-08-05T13:09:08.771Z,19.96
2022-08-05T13:12:01.275Z,20.23
2022-08-05T13:14:36.847Z,20.59
2022-08-05T13:17:10.352Z,21.05
2022-08-05T13:19:52.268Z,21.48
2022-08-05T13:22:28.557Z,21.67
2022-08-05T13:25:05.203Z,21.77
2022-08-05T13:27:41.035Z,21.78
2022-08-05T13:30:34.658Z,21.91
2022-08-05T13:33:01.588Z,22.00
2022-08-05T13:35:47.531Z,22.08
2022-08-05T13:38:34.183Z,22.03
2022-08-05T13:41:05.936Z,22.04
2022-08-05T13:43:43.990Z,21.89
2022-08-05T13:46:14.884Z,21.89
2022-08-05T13:49:00.935Z,21.90
2022-08-05T13:51:40.078Z,21.77
2022-08-05T13:54:12.278Z,21.75
2022-08-05T13:56:45.048Z,21.78
2022-08-05T13:59:21.329Z,21.62
2022-08-05T14:01:58.313Z,21.51
2022-08-05T14:04:50.154Z,21.42
2022-08-05T14:07:26.204Z,21.51
2022-08-05T14:10:12.917Z,21.52
2022-08-05T14:12:48.606Z,21.50
2022-08-05T14:16:05.754Z,21.55
2022-08-05T14:18:06.521Z,21.45
2022-08-05T14:20:54.863Z,21.36
2022-08-05T14:23:26.434Z,21.40
2022-08-05T14:25:58.542Z,21.52
2022-08-05T14:28:28.006Z,21.56
2022-08-05T14:30:56.615Z,21.66
2022-08-05T14:33:24.761Z,21.73
2022-08-05T14:35:54.945Z,21.77
2022-08-05T14:38:31.883Z,21.77
2022-08-05T14:41:06.034Z,21.95
2022-08-05T14:43:57.540Z,22.15
2022-08-05T14:46:29.052Z,22.59
2022-08-05T14:49:06.282Z,22.92
2022-08-05T14:51:35.872Z,23.15
2022-08-05T14:54:29.905Z,23.26
2022-08-05T14:56:56.187Z,23.42
2022-08-05T14:59:24.164Z,23.38
2022-08-05T15:01:53.724Z,23.32
2022-08-05T15:04:24.519Z,23.25
2022-08-05T15:06:57.083Z,23.19
2022-08-05T15:09:52.561Z,23.14
2022-08-05T15:12:16.985Z,22.95
2022-08-05T15:14:49.861Z,22.91
2022-08-05T15:17:47.270Z,22.81
2022-08-05T15:20:18.687Z,22.54
2022-08-05T15:22:53.995Z,22.35
2022-08-05T15:25:41.378Z,22.28
2022-08-05T15:28:15.783Z,22.22
2022-08-05T15:30:52.879Z,22.22
2022-08-05T15:33:56.922Z,22.12
2022-08-05T15:36:17.862Z,22.16
2022-08-05T15:40:59.733Z,22.10
2022-08-05T15:41:56.156Z,22.00
2022-08-05T15:44:27.538Z,22.02
2022-08-05T15:46:55.973Z,22.01
2022-08-05T15:49:53.555Z,22.03
2022-08-05T15:52:29.571Z,22.74
2022-08-05T15:55:02.198Z,23.41
2022-08-05T15:57:33.110Z,23.61
2022-08-05T16:00:04.119Z,23.60
2022-08-05T16:02:32.526Z,23.64
2022-08-05T16:05:03.279Z,23.63
2022-08-05T16:07:34.465Z,24.22
2022-08-05T16:10:03.479Z,25.07
2022-08-05T16:12:33.109Z,25.69
2022-08-05T16:15:02.233Z,25.83
2022-08-05T16:17:32.304Z,25.61
2022-08-05T16:20:05.014Z,25.21
2022-08-05T16:22:35.906Z,24.93
2022-08-05T16:25:09.388Z,24.72
2022-08-05T16:28:00.925Z,24.56
2022-08-05T16:30:29.044Z,24.45
2022-08-05T16:33:00.523Z,24.24
2022-08-05T16:35:32.346Z,23.99
2022-08-05T16:38:16.768Z,23.82
2022-08-05T16:42:12.289Z,23.69
2022-08-05T16:43:57.555Z,23.57
2022-08-05T16:46:25.660Z,23.45
2022-08-05T16:48:53.629Z,23.29
2022-08-05T16:51:23.750Z,23.27
2022-08-05T16:54:06.074Z,23.17
2022-08-05T16:56:43.115Z,23.25
2022-08-05T16:59:15.655Z,23.73
2022-08-05T17:01:54.950Z,24.49
2022-08-05T17:04:26.500Z,25.17
2022-08-05T17:06:55.692Z,25.83
2022-08-05T17:09:28.460Z,26.42
2022-08-05T17:12:00.001Z,27.02
2022-08-05T17:14:37.022Z,27.80
2022-08-05T17:17:14.280Z,27.60
2022-08-05T17:19:45.594Z,27.10
2022-08-05T17:22:17.880Z,26.48
2022-08-05T17:24:57.691Z,25.86
2022-08-05T17:27:34.472Z,25.33
2022-08-05T17:30:12.100Z,24.79
2022-08-05T17:32:58.813Z,24.29
2022-08-05T17:35:32.655Z,23.98
2022-08-05T17:38:17.516Z,23.58
2022-08-05T17:40:45.711Z,23.34
2022-08-05T17:43:15.618Z,22.97
2022-08-05T17:45:45.792Z,22.81
2022-08-05T17:48:13.767Z,22.41
2022-08-05T17:50:44.036Z,22.15
2022-08-05T17:53:12.069Z,21.94
2022-08-05T17:55:40.321Z,21.77
2022-08-05T17:58:11.043Z,21.67
2022-08-05T18:00:39.926Z,21.62
2022-08-05T18:03:55.842Z,21.43
2022-08-05T18:06:12.215Z,21.35
2022-08-05T18:08:44.836Z,21.33
2022-08-05T18:11:24.652Z,21.27
2022-08-05T18:14:03.657Z,21.10
2022-08-05T18:16:35.484Z,21.11
2022-08-05T18:19:23.020Z,20.98
2022-08-05T18:22:09.725Z,20.87
2022-08-05T18:24:40.066Z,20.69
2022-08-05T18:27:18.197Z,20.57
2022-08-05T18:29:53.703Z,20.49
2022-08-05T18:32:27.804Z,20.44
2022-08-05T18:35:01.251Z,20.34
2022-08-05T18:37:34.581Z,20.27
2022-08-05T18:40:34.592Z,20.31
2022-08-05T18:42:57.985Z,20.36
2022-08-05T18:45:41.732Z,20.36
2022-08-05T18:48:17.502Z,20.36
2022-08-05T18:52:02.683Z,20.31
2022-08-05T18:54:06.890Z,20.28
2022-08-05T18:56:37.195Z,20.25
2022-08-05T18:59:41.892Z,20.16
2022-08-05T19:01:58.443Z,19.92
2022-08-05T19:04:27.475Z,19.69
2022-08-05T19:06:56.931Z,19.52
2022-08-05T19:09:25.096Z,19.36
2022-08-05T19:11:59.554Z,19.14
2022-08-05T19:14:59.313Z,18.98
2022-08-05T19:17:17.920Z,18.85
2022-08-05T19:19:48.667Z,18.74
2022-08-05T19:22:18.457Z,18.56
2022-08-05T19:25:00.761Z,18.38
2022-08-05T19:27:30.928Z,18.34
2022-08-05T19:29:59.378Z,18.23
2022-08-05T19:32:27.748Z,18.21
2022-08-05T19:34:56.334Z,18.15
2022-08-05T19:37:34.829Z,18.19
2022-08-05T19:40:17.429Z,18.27
2022-08-05T19:43:04.502Z,18.26
2022-08-05T19:45:37.022Z,18.15
2022-08-05T19:48:06.213Z,18.14
2022-08-05T19:50:35.182Z,18.30
2022-08-05T19:53:09.690Z,18.33
2022-08-05T19:56:15.738Z,18.28
2022-08-05T19:58:29.211Z,18.28
2022-08-05T20:00:58.006Z,18.37
2022-08-05T20:03:27.463Z,18.32
2022-08-05T20:06:15.678Z,18.29
2022-08-05T20:08:47.632Z,18.22
2022-08-05T20:11:18.055Z,18.16
2022-08-05T20:13:58.525Z,18.07
2022-08-05T20:16:41.274Z,17.99
2022-08-05T20:19:11.558Z,18.07
2022-08-05T20:21:44.675Z,18.10
2022-08-05T20:24:14.646Z,18.08
2022-08-05T20:26:44.314Z,18.06
2022-08-05T20:29:26.638Z,17.89
2022-08-05T20:31:58.227Z,17.77
2022-08-05T20:34:27.782Z,17.81
2022-08-05T20:36:55.866Z,17.86
2022-08-05T20:39:25.813Z,17.88
2022-08-05T20:42:03.782Z,17.75
2022-08-05T20:44:37.849Z,17.80
2022-08-05T20:47:07.750Z,17.71
2022-08-05T20:49:47.713Z,17.65
2022-08-05T20:52:19.316Z,17.54
2022-08-05T20:54:59.077Z,17.45
2022-08-05T20:57:42.084Z,17.41
2022-08-05T21:00:41.232Z,17.35
2022-08-05T21:03:07.202Z,17.34
2022-08-05T21:05:53.606Z,17.40
2022-08-05T21:08:33.160Z,17.45
2022-08-05T21:11:12.016Z,17.50
2022-08-05T21:13:47.745Z,17.45
2022-08-05T21:16:29.692Z,17.46
2022-08-05T21:19:00.392Z,17.30
2022-08-05T21:21:39.786Z,17.19
2022-08-05T21:24:15.525Z,16.96
2022-08-05T21:27:00.476Z,16.83
2022-08-05T21:29:31.352Z,16.90
2022-08-05T21:32:00.593Z,17.00
2022-08-05T21:34:28.656Z,17.01
2022-08-05T21:36:59.836Z,16.93
2022-08-05T21:39:28.183Z,16.90
2022-08-05T21:42:02.315Z,16.89
2022-08-05T21:44:30.991Z,16.91
2022-08-05T21:47:00.015Z,16.95
2022-08-05T21:49:48.205Z,16.93
2022-08-05T21:52:27.749Z,17.15
2022-08-05T21:54:56.585Z,17.31
2022-08-05T21:57:31.572Z,17.63
2022-08-05T22:00:06.207Z,17.69
2022-08-05T22:02:35.294Z,17.76
2022-08-05T22:05:04.558Z,17.72
2022-08-05T22:07:40.053Z,17.83
2022-08-05T22:10:26.586Z,17.67
2022-08-05T22:13:08.575Z,17.51
2022-08-05T22:16:00.382Z,17.40
2022-08-05T22:18:27.064Z,17.14
2022-08-05T22:20:55.895Z,17.11
2022-08-05T22:24:02.160Z,17.17
2022-08-05T22:26:55.703Z,17.20
2022-08-05T22:29:32.876Z,17.03
2022-08-05T22:32:03.151Z,17.10
2022-08-05T22:34:32.106Z,17.16
2022-08-05T22:37:00.637Z,17.08
2022-08-05T22:39:33.836Z,17.15
2022-08-05T22:42:10.916Z,17.02
2022-08-05T22:44:42.495Z,16.83
2022-08-05T22:47:28.972Z,16.75
2022-08-05T22:50:19.081Z,16.86
2022-08-05T22:52:47.224Z,16.85
2022-08-05T22:55:18.943Z,16.80
2022-08-05T22:57:49.811Z,16.77
2022-08-05T23:00:21.985Z,16.75
2022-08-05T23:02:50.974Z,16.81
2022-08-05T23:05:21.874Z,16.89
2022-08-05T23:07:50.702Z,16.92
2022-08-05T23:10:19.552Z,17.02
2022-08-05T23:12:51.152Z,17.02
2022-08-05T23:15:38.231Z,16.99
2022-08-05T23:18:16.001Z,16.89
2022-08-05T23:20:44.155Z,16.78
2022-08-05T23:23:12.314Z,16.63
2022-08-05T23:25:52.568Z,16.54
2022-08-05T23:28:23.013Z,16.51
2022-08-05T23:30:54.772Z,16.33
2022-08-05T23:33:26.346Z,16.16
2022-08-05T23:36:13.817Z,16.03
2022-08-05T23:38:42.815Z,16.09
2022-08-05T23:41:11.878Z,16.10
2022-08-05T23:44:05.954Z,16.21
2022-08-05T23:46:46.323Z,16.27
2022-08-05T23:49:17.043Z,16.38
2022-08-05T23:52:07.876Z,16.38
2022-08-05T23:54:38.384Z,16.35
2022-08-05T23:57:08.450Z,16.36
